Time;durP1;ratioP1;P1;durP2;ratioP2;P2;SDS_P1;SDS_P2;PMS_P1;PMS_P2;Temp;Humidity;BMP_temperature;BMP_pressure;BME280_temperature;BME280_humidity;BME280_pressure;Samples;Min_cycle;Max_cycle;Signal;HPM_P1;HPM_P2
2022/09/21 00:01:04;;;;;;;2.38;1.45;;;17.20;65.10;;;;;;5050818;28;20519;-71
2022/09/21 00:03:31;;;;;;;1.45;1.35;;;17.20;65.00;;;;;;5051169;28;20048;-71
2022/09/21 00:06:02;;;;;;;2.50;1.20;;;16.90;67.20;;;;;;5050852;28;20083;-71
2022/09/21 00:08:30;;;;;;;3.38;1.25;;;17.10;65.00;;;;;;5067063;28;20501;-71
2022/09/21 00:10:57;;;;;;;1.80;1.25;;;17.20;65.10;;;;;;5070848;28;20080;-71
2022/09/21 00:13:27;;;;;;;2.47;1.38;;;17.10;65.00;;;;;;5072067;28;20378;-71
2022/09/21 00:15:54;;;;;;;1.20;1.10;;;17.10;65.00;;;;;;5071990;28;20554;-71
2022/09/21 00:18:20;;;;;;;1.63;1.30;;;17.10;65.00;;;;;;5071507;28;20052;-71
2022/09/21 00:20:47;;;;;;;2.42;1.40;;;17.10;65.00;;;;;;5071668;28;20055;-71
2022/09/21 00:23:14;;;;;;;2.65;1.35;;;17.30;67.60;;;;;;5056370;28;20075;-71
2022/09/21 00:25:42;;;;;;;1.90;1.20;;;17.10;65.00;;;;;;5051849;28;20486;-71
2022/09/21 00:28:09;;;;;;;1.40;1.20;;;17.10;65.00;;;;;;5050259;28;20049;-71
2022/09/21 00:30:36;;;;;;;2.13;1.20;;;17.10;65.00;;;;;;5051316;28;20053;-71
2022/09/21 00:33:03;;;;;;;1.90;1.20;;;17.10;65.00;;;;;;5050411;28;20052;-71
2022/09/21 00:35:30;;;;;;;2.08;1.38;;;17.10;65.00;;;;;;5050310;28;20401;-71
2022/09/21 00:38:00;;;;;;;2.35;1.30;;;17.10;65.00;;;;;;5067902;28;20051;-71
2022/09/21 00:40:27;;;;;;;1.50;1.20;;;17.10;64.90;;;;;;5070319;28;20084;-71
2022/09/21 00:43:13;;;;;;;1.70;1.17;;;17.00;64.90;;;;;;5071744;28;20051;-71
2022/09/21 00:45:40;;;;;;;1.95;1.15;;;17.00;64.80;;;;;;5070684;28;20058;-71
2022/09/21 00:48:06;;;;;;;1.42;1.05;;;17.00;65.50;;;;;;5071252;28;20079;-71
2022/09/21 00:50:33;;;;;;;1.23;1.08;;;17.20;67.20;;;;;;5070353;28;20135;-71
2022/09/21 00:53:00;;;;;;;2.03;1.10;;;17.00;67.50;;;;;;5051438;28;20059;-70
2022/09/21 00:55:29;;;;;;;1.38;1.00;;;17.00;64.90;;;;;;5051225;28;20401;-71
2022/09/21 00:57:59;;;;;;;1.13;1.02;;;17.00;64.90;;;;;;5050212;28;20152;-71
2022/09/21 01:00:26;;;;;;;2.50;1.27;;;17.00;64.90;;;;;;5050053;28;20053;-70
2022/09/21 01:02:54;;;;;;;1.40;1.10;;;17.00;64.90;;;;;;5050580;28;20383;-71
2022/09/21 01:05:21;;;;;;;1.20;1.10;;;17.00;64.90;;;;;;5051476;28;20075;-71
2022/09/21 01:07:48;;;;;;;3.08;1.30;;;17.00;64.90;;;;;;5072814;28;20093;-70
2022/09/21 01:10:16;;;;;;;1.20;1.10;;;17.00;64.90;;;;;;5074834;28;20058;-71
2022/09/21 01:12:50;;;;;;;2.30;1.52;;;17.00;64.90;;;;;;5075238;28;20052;-71
2022/09/21 01:15:26;;;;;;;1.53;1.10;;;17.00;64.90;;;;;;5074065;28;20055;-71
2022/09/21 01:17:56;;;;;;;1.52;1.20;;;16.90;64.80;;;;;;5075003;28;20305;-71
2022/09/21 01:21:02;;;;;;;1.55;1.05;;;17.00;64.90;;;;;;5070788;28;20055;-71
2022/09/21 01:23:42;;;;;;;1.58;1.10;;;17.00;64.80;;;;;;5054052;28;20053;-71
2022/09/21 01:26:14;;;;;;;1.90;1.10;;;16.80;67.50;;;;;;5053410;28;20055;-70
2022/09/21 01:29:13;;;;;;;1.83;1.25;;;16.90;64.90;;;;;;5055055;28;20067;-71
2022/09/21 01:31:44;;;;;;;1.67;1.10;;;16.70;67.20;;;;;;5031725;28;20061;-71
2022/09/21 01:34:14;;;;;;;1.52;1.10;;;16.90;65.40;;;;;;5055861;28;20049;-70
2022/09/21 01:36:41;;;;;;;2.13;1.10;;;16.80;66.10;;;;;;5054068;28;20102;-71
2022/09/21 01:39:09;;;;;;;1.50;1.05;;;16.90;65.40;;;;;;5055344;28;20394;-71
2022/09/21 01:41:36;;;;;;;1.75;1.20;;;16.90;64.80;;;;;;5054845;28;20048;-71
2022/09/21 01:44:07;;;;;;;2.33;0.98;;;16.90;64.80;;;;;;5054080;28;20057;-71
2022/09/21 01:46:35;;;;;;;0.93;0.90;;;16.40;65.80;;;;;;5053593;28;20080;-71
2022/09/21 01:49:04;;;;;;;1.08;0.90;;;16.80;64.80;;;;;;5033775;28;20060;-71
2022/09/21 01:51:30;;;;;;;1.10;1.00;;;16.80;64.80;;;;;;5034668;28;20045;-71
2022/09/21 01:53:59;;;;;;;2.05;1.17;;;16.80;64.80;;;;;;5033845;28;20479;-71
2022/09/21 01:56:27;;;;;;;1.48;1.05;;;16.80;65.80;;;;;;5033408;28;20049;-71
2022/09/21 01:58:57;;;;;;;1.38;1.10;;;16.80;64.80;;;;;;5034910;28;20064;-71
2022/09/21 02:01:24;;;;;;;1.15;0.90;;;16.80;64.70;;;;;;5034544;28;20414;-71
2022/09/21 02:03:54;;;;;;;1.27;1.02;;;16.80;64.80;;;;;;5074780;28;20051;-71
2022/09/21 02:06:20;;;;;;;1.55;0.95;;;16.80;64.70;;;;;;5073456;28;20057;-71
2022/09/21 02:08:47;;;;;;;1.77;0.95;;;16.80;67.30;;;;;;5073340;28;20075;-71
2022/09/21 02:11:14;;;;;;;1.08;0.90;;;16.80;64.70;;;;;;5072968;28;20063;-71
2022/09/21 02:13:43;;;;;;;1.10;1.00;;;16.80;64.70;;;;;;5073762;28;20397;-71
2022/09/21 02:16:20;;;;;;;1.73;1.00;;;16.80;64.70;;;;;;5070324;28;20127;-70
2022/09/21 02:18:50;;;;;;;1.38;1.00;;;16.80;64.70;;;;;;5052829;28;20616;-71
2022/09/21 02:21:23;;;;;;;1.40;0.90;;;16.80;64.70;;;;;;5053431;28;20052;-71
2022/09/21 02:23:51;;;;;;;0.90;0.90;;;16.80;67.80;;;;;;5054301;28;20432;-71
2022/09/21 02:26:20;;;;;;;1.60;1.20;;;16.70;64.70;;;;;;5053109;28;20409;-71
2022/09/21 02:28:49;;;;;;;1.38;1.00;;;16.70;64.70;;;;;;5053421;28;20112;-71
2022/09/21 02:31:20;;;;;;;1.10;1.00;;;16.70;64.70;;;;;;5059266;28;20052;-71
2022/09/21 02:33:50;;;;;;;1.25;0.90;;;16.70;64.70;;;;;;5056785;28;20387;-71
2022/09/21 02:36:21;;;;;;;1.27;0.90;;;16.70;64.70;;;;;;5051771;28;20059;-71
2022/09/21 02:38:49;;;;;;;0.90;0.90;;;16.70;64.70;;;;;;5053440;28;20047;-71
2022/09/21 02:41:17;;;;;;;1.20;0.90;;;16.70;65.20;;;;;;5053548;28;20053;-71
2022/09/21 02:43:45;;;;;;;2.60;1.35;;;16.70;64.70;;;;;;5053282;28;20041;-71
2022/09/21 02:46:14;;;;;;;1.08;0.90;;;16.60;64.70;;;;;;5051655;28;20059;-71
2022/09/21 02:48:43;;;;;;;1.15;0.88;;;16.70;64.70;;;;;;5053502;28;20045;-71
2022/09/21 02:51:10;;;;;;;0.98;0.88;;;16.70;64.70;;;;;;5053266;28;20490;-71
2022/09/21 02:53:39;;;;;;;2.45;0.98;;;16.70;64.70;;;;;;5052150;28;20049;-71
2022/09/21 02:56:06;;;;;;;1.67;1.23;;;16.60;64.60;;;;;;5051722;28;20045;-71
2022/09/21 02:58:35;;;;;;;1.58;1.00;;;16.70;64.70;;;;;;5050641;28;20558;-71
2022/09/21 03:01:03;;;;;;;0.95;0.88;;;16.70;64.70;;;;;;5051772;28;20055;-71
2022/09/21 03:03:30;;;;;;;1.17;0.88;;;16.60;64.60;;;;;;5053198;28;20116;-71
2022/09/21 03:05:57;;;;;;;1.25;1.05;;;16.60;64.60;;;;;;5052090;28;20486;-71
2022/09/21 03:08:24;;;;;;;1.10;0.80;;;16.60;64.60;;;;;;5051942;28;20057;-71
2022/09/21 03:10:52;;;;;;;1.17;0.90;;;16.60;67.80;;;;;;5051875;28;20482;-71
2022/09/21 03:13:19;;;;;;;2.92;1.00;;;16.60;64.60;;;;;;5053174;28;20067;-71
2022/09/21 03:15:46;;;;;;;1.35;1.00;;;16.60;64.60;;;;;;5053448;28;20410;-71
2022/09/21 03:18:13;;;;;;;0.85;0.80;;;16.60;64.60;;;;;;5052000;28;20060;-71
2022/09/21 03:20:44;;;;;;;1.02;0.85;;;16.50;64.60;;;;;;5051449;28;20060;-71
2022/09/21 03:23:10;;;;;;;0.98;0.88;;;16.60;64.60;;;;;;5053102;28;20045;-71
2022/09/21 03:25:37;;;;;;;1.58;1.00;;;16.60;64.60;;;;;;5052945;28;20052;-71
2022/09/21 03:28:05;;;;;;;1.30;1.00;;;16.50;64.60;;;;;;5052644;28;20049;-71
2022/09/21 03:30:32;;;;;;;0.85;0.80;;;16.50;64.60;;;;;;5052184;28;20073;-70
2022/09/21 03:32:59;;;;;;;1.50;1.10;;;16.50;64.60;;;;;;5071335;28;20131;-71
2022/09/21 03:35:25;;;;;;;1.10;0.90;;;16.50;64.50;;;;;;5071354;28;20056;-71
2022/09/21 03:37:53;;;;;;;1.13;0.90;;;16.40;67.50;;;;;;5071352;28;20135;-71
2022/09/21 03:40:20;;;;;;;0.80;0.80;;;16.50;67.60;;;;;;5072365;28;20131;-71
2022/09/21 03:42:47;;;;;;;2.70;1.00;;;16.50;64.50;;;;;;5071560;28;20376;-71
2022/09/21 03:45:15;;;;;;;0.80;0.73;;;16.50;65.10;;;;;;5070879;28;20048;-70
2022/09/21 03:47:42;;;;;;;0.93;0.80;;;16.50;64.50;;;;;;5051392;28;20052;-71
2022/09/21 03:50:09;;;;;;;1.20;0.80;;;16.50;64.50;;;;;;5052062;28;20055;-71
2022/09/21 03:52:37;;;;;;;1.00;0.90;;;16.50;64.50;;;;;;5052439;28;20053;-71
2022/09/21 03:55:05;;;;;;;1.63;1.00;;;16.50;64.50;;;;;;5051437;28;20052;-71
2022/09/21 03:57:33;;;;;;;0.80;0.80;;;16.50;64.50;;;;;;5051337;28;20490;-71
2022/09/21 04:00:02;;;;;;;1.35;1.00;;;16.40;64.40;;;;;;5051867;28;20087;-70
2022/09/21 04:02:30;;;;;;;1.20;0.90;;;16.50;64.50;;;;;;5064122;28;20409;-71
2022/09/21 04:04:57;;;;;;;1.23;0.90;;;16.40;64.50;;;;;;5072208;28;20063;-71
2022/09/21 04:07:25;;;;;;;1.15;0.90;;;16.40;67.10;;;;;;5072049;28;20482;-71
2022/09/21 04:09:52;;;;;;;2.72;1.10;;;16.40;64.50;;;;;;5071892;28;20152;-70
2022/09/21 04:12:21;;;;;;;1.25;0.90;;;16.40;64.40;;;;;;5072242;28;20049;-71
2022/09/21 04:14:49;;;;;;;1.23;0.90;;;16.40;64.40;;;;;;5071901;28;20048;-71
2022/09/21 04:17:16;;;;;;;1.10;1.00;;;16.40;64.40;;;;;;5056533;28;20064;-71
2022/09/21 04:19:44;;;;;;;0.95;0.80;;;16.40;64.40;;;;;;5052126;28;20060;-71
2022/09/21 04:22:12;;;;;;;1.48;0.95;;;16.30;67.00;;;;;;5051463;28;20490;-71
2022/09/21 04:24:39;;;;;;;0.80;0.80;;;16.40;64.50;;;;;;5052478;28;20387;-71
2022/09/21 04:27:06;;;;;;;1.00;0.90;;;16.40;64.50;;;;;;5052221;28;20053;-71
2022/09/21 04:29:33;;;;;;;1.23;0.80;;;16.40;64.40;;;;;;5052014;28;20421;-71
2022/09/21 04:32:00;;;;;;;0.95;0.82;;;16.40;64.40;;;;;;5057141;28;20059;-71
2022/09/21 04:34:26;;;;;;;1.00;0.90;;;16.40;64.40;;;;;;5062311;28;20052;-70
2022/09/21 04:36:55;;;;;;;1.30;0.80;;;16.40;64.40;;;;;;5070621;28;20405;-71
2022/09/21 04:39:22;;;;;;;0.70;0.70;;;16.40;64.40;;;;;;5061504;28;20071;-71
2022/09/21 04:41:49;;;;;;;1.02;0.73;;;16.40;64.40;;;;;;5069032;28;20067;-71
2022/09/21 04:44:17;;;;;;;1.50;0.90;;;17.30;67.80;;;;;;5071754;28;20074;-71
2022/09/21 04:46:44;;;;;;;1.25;0.80;;;16.40;66.60;;;;;;5071605;28;20090;-71
2022/09/21 04:49:11;;;;;;;0.75;0.75;;;16.30;64.30;;;;;;5071920;28;20051;-71
2022/09/21 04:51:37;;;;;;;0.60;0.60;;;16.30;64.30;;;;;;5070286;28;20054;-71
2022/09/21 04:54:06;;;;;;;1.33;0.80;;;16.30;64.30;;;;;;5071809;28;20044;-71
2022/09/21 04:56:33;;;;;;;0.80;0.68;;;16.30;65.70;;;;;;5052113;28;20405;-71
2022/09/21 04:58:59;;;;;;;0.52;0.52;;;16.30;64.40;;;;;;5051661;28;20049;-71
2022/09/21 05:01:26;;;;;;;0.52;0.52;;;16.30;64.40;;;;;;5051391;28;20056;-71
2022/09/21 05:04:00;;;;;;;0.85;0.80;;;16.30;64.40;;;;;;5051464;28;20049;-71
2022/09/21 05:06:27;;;;;;;1.30;0.88;;;16.30;65.90;;;;;;5051258;28;20407;-71
2022/09/21 05:11:39;;;;;;;0.80;0.80;;;16.30;64.40;;;;;;5030365;28;20053;-71
2022/09/21 05:14:06;;;;;;;0.70;0.70;;;16.20;67.50;;;;;;5031069;28;20410;-70
2022/09/21 05:16:32;;;;;;;1.52;0.80;;;16.20;65.70;;;;;;5029877;28;20053;-70
2022/09/21 05:18:59;;;;;;;0.65;0.65;;;16.30;64.30;;;;;;5030187;28;20060;-72
2022/09/21 05:21:26;;;;;;;0.77;0.77;;;16.30;64.30;;;;;;5031214;28;20060;-71
2022/09/21 05:23:53;;;;;;;0.73;0.73;;;16.10;67.00;;;;;;5036060;28;20055;-70
2022/09/21 05:26:20;;;;;;;0.90;0.70;;;16.30;64.30;;;;;;5069563;28;20405;-70
2022/09/21 05:28:48;;;;;;;0.82;0.80;;;16.30;64.30;;;;;;5069895;28;20135;-70
2022/09/21 05:31:35;;;;;;;0.70;0.70;;;16.30;64.30;;;;;;5069972;28;20052;-70
2022/09/21 05:34:05;;;;;;;1.02;0.70;;;16.30;64.20;;;;;;5066575;28;20048;-70
2022/09/21 05:36:39;;;;;;;0.80;0.80;;;15.80;65.40;;;;;;5069839;28;20052;-71
2022/09/21 05:39:06;;;;;;;0.60;0.60;;;16.30;64.30;;;;;;5063104;28;20633;-70
2022/09/21 05:41:34;;;;;;;0.65;0.65;;;16.30;64.80;;;;;;5049450;28;20053;-70
2022/09/21 05:44:03;;;;;;;0.60;0.60;;;16.30;64.20;;;;;;5049423;28;20059;-70
2022/09/21 05:46:35;;;;;;;0.90;0.70;;;16.40;65.60;;;;;;5049981;28;20052;-70
2022/09/21 05:49:04;;;;;;;0.63;0.63;;;16.30;64.10;;;;;;5049577;28;20081;-72
2022/09/21 05:51:34;;;;;;;0.60;0.60;;;16.30;64.20;;;;;;5049769;28;20057;-70
2022/09/21 05:54:03;;;;;;;0.60;0.60;;;16.30;64.10;;;;;;5061798;28;20049;-70
2022/09/21 05:56:36;;;;;;;1.27;0.70;;;16.20;65.70;;;;;;5072899;28;20048;-70
2022/09/21 05:59:12;;;;;;;0.88;0.70;;;16.30;64.10;;;;;;5073119;28;20421;-71
2022/09/21 06:01:44;;;;;;;1.02;0.70;;;16.20;66.80;;;;;;5059612;28;20059;-71
2022/09/21 06:04:12;;;;;;;0.52;0.52;;;16.20;64.10;;;;;;5053054;28;20336;-70
2022/09/21 06:06:38;;;;;;;0.60;0.60;;;16.30;65.70;;;;;;5053208;28;20059;-70
2022/09/21 06:09:05;;;;;;;0.60;0.60;;;16.20;64.00;;;;;;5052874;28;20053;-70
2022/09/21 06:11:32;;;;;;;0.80;0.70;;;16.20;64.00;;;;;;5068887;28;20056;-70
2022/09/21 06:14:00;;;;;;;1.40;0.77;;;16.20;64.00;;;;;;5073052;28;20405;-70
2022/09/21 06:16:36;;;;;;;0.70;0.70;;;16.40;65.70;;;;;;5073016;28;20070;-70
2022/09/21 06:19:02;;;;;;;0.60;0.60;;;16.90;67.10;;;;;;5073274;28;20060;-70
2022/09/21 06:21:29;;;;;;;0.60;0.60;;;16.20;64.00;;;;;;5052483;28;20389;-71
2022/09/21 06:23:56;;;;;;;0.80;0.73;;;16.20;64.00;;;;;;5052968;28;20052;-70
2022/09/21 06:26:22;;;;;;;0.55;0.55;;;16.10;66.80;;;;;;5069926;28;20052;-70
2022/09/21 06:28:49;;;;;;;1.08;0.70;;;16.20;63.90;;;;;;5072718;28;20064;-72
2022/09/21 06:31:16;;;;;;;1.08;0.77;;;16.20;63.90;;;;;;5072781;28;20053;-71
2022/09/21 06:33:44;;;;;;;0.80;0.75;;;16.20;63.90;;;;;;5075652;28;20387;-71
2022/09/21 06:36:11;;;;;;;0.65;0.63;;;16.20;64.00;;;;;;5074503;28;20048;-71
2022/09/21 06:38:37;;;;;;;0.90;0.75;;;16.20;64.00;;;;;;5057862;28;20067;-71
2022/09/21 06:41:05;;;;;;;0.70;0.60;;;16.20;64.00;;;;;;5053100;28;20045;-71
2022/09/21 06:43:31;;;;;;;0.50;0.50;;;16.20;64.00;;;;;;5053185;28;20067;-71
2022/09/21 06:46:00;;;;;;;0.63;0.63;;;16.20;64.00;;;;;;5053682;28;20719;-71
2022/09/21 06:48:27;;;;;;;1.13;0.80;;;16.30;64.10;;;;;;5054560;28;20056;-71
2022/09/21 06:50:58;;;;;;;1.95;0.77;;;17.40;67.60;;;;;;5053544;28;20060;-71
2022/09/21 06:53:25;;;;;;;0.80;0.77;;;16.30;64.00;;;;;;5053647;28;20053;-71
2022/09/21 06:55:52;;;;;;;1.08;0.85;;;16.30;64.00;;;;;;5072446;28;20045;-71
2022/09/21 06:58:19;;;;;;;1.33;0.60;;;16.30;63.90;;;;;;5073026;28;20052;-71
2022/09/21 07:00:46;;;;;;;1.13;0.70;;;16.40;64.00;;;;;;5072231;28;20138;-71
2022/09/21 07:03:13;;;;;;;1.17;0.70;;;16.40;63.90;;;;;;5074143;28;20504;-71
2022/09/21 07:05:40;;;;;;;0.98;0.70;;;16.40;67.00;;;;;;5072168;28;20051;-71
2022/09/21 07:08:08;;;;;;;0.85;0.70;;;16.50;63.90;;;;;;5073205;28;20055;-70
2022/09/21 07:10:34;;;;;;;1.10;0.70;;;16.50;63.90;;;;;;5072667;28;20135;-70
2022/09/21 07:13:02;;;;;;;1.63;0.52;;;16.50;63.80;;;;;;5057863;28;20107;-70
2022/09/21 07:15:30;;;;;;;1.40;0.80;;;16.60;63.90;;;;;;5051998;28;20056;-70
2022/09/21 07:17:56;;;;;;;2.50;0.80;;;16.60;63.90;;;;;;5053431;28;20079;-70
2022/09/21 07:20:23;;;;;;;0.93;0.73;;;16.60;63.80;;;;;;5052335;28;20052;-71
2022/09/21 07:22:50;;;;;;;0.93;0.70;;;16.60;63.80;;;;;;5054150;28;20041;-72
2022/09/21 07:25:18;;;;;;;0.52;0.52;;;16.60;63.90;;;;;;5063799;28;20106;-71
2022/09/21 07:27:46;;;;;;;2.35;0.85;;;16.70;63.90;;;;;;5051367;28;20055;-72
2022/09/21 07:30:13;;;;;;;0.68;0.60;;;16.70;63.80;;;;;;5052106;28;20103;-71
2022/09/21 07:32:41;;;;;;;2.20;0.70;;;16.70;63.80;;;;;;5052939;28;20073;-71
2022/09/21 07:35:08;;;;;;;0.57;0.52;;;16.70;63.80;;;;;;5052699;28;20119;-71
2022/09/21 07:37:35;;;;;;;1.42;0.70;;;16.80;63.80;;;;;;5051404;28;20055;-71
2022/09/21 07:40:04;;;;;;;5.78;1.10;;;16.70;63.80;;;;;;5053085;28;20052;-71
2022/09/21 07:42:32;;;;;;;1.67;0.82;;;16.80;63.80;;;;;;5052905;28;20041;-71
2022/09/21 07:44:59;;;;;;;3.38;1.10;;;16.80;63.80;;;;;;5051559;28;20514;-70
2022/09/21 07:47:27;;;;;;;1.65;1.00;;;16.80;63.80;;;;;;5051924;28;20049;-72
2022/09/21 07:49:54;;;;;;;4.25;1.20;;;16.80;64.00;;;;;;5053226;28;20048;-71
2022/09/21 07:52:21;;;;;;;3.25;1.17;;;16.90;63.80;;;;;;5052282;28;20053;-71
2022/09/21 07:54:47;;;;;;;2.47;1.10;;;16.90;63.80;;;;;;5053898;28;20394;-71
2022/09/21 07:59:59;;;;;;;2.72;1.17;;;16.90;63.70;;;;;;5050687;28;20084;-72
2022/09/21 08:02:26;;;;;;;4.15;1.30;;;16.90;63.70;;;;;;5051904;28;20449;-71
2022/09/21 08:04:53;;;;;;;3.28;1.10;;;17.00;63.80;;;;;;5050637;28;20055;-71
2022/09/21 08:07:20;;;;;;;4.30;1.33;;;17.00;63.70;;;;;;5051563;28;20060;-71
2022/09/21 08:09:48;;;;;;;4.32;1.42;;;17.00;63.70;;;;;;5051562;28;20055;-71
2022/09/21 08:12:16;;;;;;;3.15;1.30;;;17.00;63.70;;;;;;5051946;28;20136;-73
2022/09/21 08:14:43;;;;;;;3.70;1.38;;;17.00;63.70;;;;;;5051126;28;20057;-72
2022/09/21 08:17:11;;;;;;;3.63;1.52;;;17.00;63.70;;;;;;5050811;28;20051;-73
2022/09/21 08:19:37;;;;;;;4.47;1.30;;;17.00;63.70;;;;;;5052769;28;20052;-73
2022/09/21 08:22:05;;;;;;;3.97;1.33;;;17.00;63.70;;;;;;5050798;28;20089;-73
2022/09/21 08:24:31;;;;;;;5.80;1.52;;;17.00;63.70;;;;;;5052006;28;20049;-73
2022/09/21 08:26:58;;;;;;;3.72;1.40;;;17.00;63.70;;;;;;5052371;28;20304;-72
2022/09/21 08:29:25;;;;;;;5.22;1.80;;;17.00;63.70;;;;;;5051349;28;20052;-72
2022/09/21 08:31:52;;;;;;;6.80;2.03;;;16.90;63.60;;;;;;5050980;28;20057;-72
2022/09/21 08:34:22;;;;;;;4.75;1.60;;;16.90;63.60;;;;;;5050947;28;20080;-71
2022/09/21 08:36:48;;;;;;;3.20;1.40;;;17.00;67.00;;;;;;5052308;28;20502;-72
2022/09/21 08:39:15;;;;;;;5.22;1.30;;;16.90;63.70;;;;;;5050946;28;20053;-71
2022/09/21 08:42:00;;;;;;;4.00;1.38;;;16.90;63.60;;;;;;5051216;28;20049;-72
2022/09/21 08:44:29;;;;;;;4.88;1.60;;;16.90;63.60;;;;;;5051056;28;20060;-71
2022/09/21 08:47:01;;;;;;;4.68;1.67;;;16.90;63.70;;;;;;5052056;28;20053;-72
2022/09/21 08:49:29;;;;;;;3.92;1.48;;;16.90;63.70;;;;;;5052056;28;20080;-72
2022/09/21 08:51:57;;;;;;;4.70;1.45;;;16.90;63.70;;;;;;5050974;28;20057;-72
2022/09/21 08:54:27;;;;;;;3.20;1.30;;;16.90;63.70;;;;;;5052044;28;20052;-71
2022/09/21 08:56:53;;;;;;;3.15;1.40;;;16.90;63.70;;;;;;5050584;28;20417;-71
2022/09/21 08:59:20;;;;;;;4.28;1.30;;;16.90;63.70;;;;;;5051888;28;20049;-72
2022/09/21 09:01:57;;;;;;;4.60;1.40;;;17.00;66.40;;;;;;5050252;28;20057;-71
2022/09/21 09:04:36;;;;;;;4.63;1.40;;;16.90;63.70;;;;;;5050858;28;20486;-71
2022/09/21 09:07:17;;;;;;;2.95;1.27;;;16.90;63.70;;;;;;5050830;28;20056;-72
2022/09/21 09:09:50;;;;;;;4.22;1.50;;;16.80;67.00;;;;;;5050536;28;20162;-72
2022/09/21 09:12:28;;;;;;;3.58;1.25;;;16.90;63.70;;;;;;5051798;28;20383;-72
2022/09/21 09:15:07;;;;;;;3.65;1.20;;;16.80;63.70;;;;;;5051945;28;20071;-72
2022/09/21 09:17:42;;;;;;;2.13;1.20;;;16.80;63.70;;;;;;5050497;28;20049;-72
2022/09/21 09:20:13;;;;;;;4.07;1.42;;;16.80;63.70;;;;;;5050250;28;20061;-72
2022/09/21 09:22:43;;;;;;;3.97;1.27;;;16.80;63.70;;;;;;5051539;28;20570;-72
2022/09/21 09:25:16;;;;;;;2.78;1.27;;;16.80;63.80;;;;;;5050565;28;20063;-72
2022/09/21 09:27:43;;;;;;;2.50;1.50;;;16.80;63.70;;;;;;5050305;28;20049;-72
2022/09/21 09:30:15;;;;;;;2.60;1.30;;;16.80;63.70;;;;;;5054923;28;20052;-72
2022/09/21 09:32:45;;;;;;;3.47;1.45;;;16.80;63.70;;;;;;5055438;28;20049;-72
2022/09/21 09:35:19;;;;;;;2.63;1.23;;;15.80;65.70;;;;;;5054226;28;20486;-72
2022/09/21 09:37:45;;;;;;;3.22;1.33;;;16.80;63.70;;;;;;5053736;28;20053;-72
2022/09/21 09:40:12;;;;;;;2.80;1.30;;;16.80;63.70;;;;;;5053704;28;20056;-72
2022/09/21 09:42:48;;;;;;;1.80;1.00;;;16.80;63.70;;;;;;5053645;28;20049;-72
2022/09/21 09:45:32;;;;;;;3.15;1.30;;;16.80;63.70;;;;;;5054149;28;20432;-72
2022/09/21 09:48:08;;;;;;;2.72;1.35;;;16.80;63.70;;;;;;5055098;28;20297;-72
2022/09/21 09:50:38;;;;;;;4.40;1.42;;;16.90;63.70;;;;;;5053764;28;20401;-71
2022/09/21 09:53:05;;;;;;;3.33;1.30;;;16.90;63.70;;;;;;5053559;28;20387;-71
2022/09/21 09:55:36;;;;;;;1.73;1.20;;;16.90;63.70;;;;;;5054838;28;20053;-72
2022/09/21 09:58:03;;;;;;;2.42;1.30;;;16.90;63.70;;;;;;5053504;28;20056;-71
2022/09/21 10:00:30;;;;;;;2.28;1.33;;;16.90;63.70;;;;;;5053503;28;20053;-72
2022/09/21 10:02:57;;;;;;;4.13;1.20;;;16.90;63.60;;;;;;5053968;28;20060;-72
2022/09/21 10:05:25;;;;;;;2.90;1.30;;;16.90;63.60;;;;;;5054848;28;20048;-71
2022/09/21 10:07:53;;;;;;;2.35;1.17;;;16.90;63.60;;;;;;5054470;28;20045;-72
2022/09/21 10:10:34;;;;;;;2.42;1.15;;;16.90;63.60;;;;;;5054534;28;20386;-72
2022/09/21 10:13:12;;;;;;;2.75;1.15;;;16.90;63.50;;;;;;5054623;28;20533;-73
2022/09/21 10:15:47;;;;;;;2.42;1.00;;;17.00;63.60;;;;;;5053833;28;20060;-73
2022/09/21 10:18:20;;;;;;;3.95;1.40;;;17.00;63.60;;;;;;5053062;28;20063;-73
2022/09/21 10:20:54;;;;;;;2.75;1.10;;;17.00;63.60;;;;;;5053064;28;20057;-73
2022/09/21 10:23:23;;;;;;;2.60;1.05;;;16.90;63.00;;;;;;5052998;28;20057;-73
2022/09/21 10:25:57;;;;;;;2.05;1.20;;;16.90;66.20;;;;;;5052745;28;20144;-73
2022/09/21 10:28:24;;;;;;;3.08;1.33;;;17.00;66.20;;;;;;5053035;28;20490;-73
2022/09/21 10:30:59;;;;;;;2.63;1.13;;;17.00;63.50;;;;;;5052875;28;20061;-73
2022/09/21 10:33:25;;;;;;;2.20;1.10;;;17.00;63.50;;;;;;5054173;28;20514;-73
2022/09/21 10:35:52;;;;;;;2.40;1.08;;;17.00;63.50;;;;;;5054054;28;20049;-73
2022/09/21 10:38:19;;;;;;;2.92;1.00;;;17.00;63.50;;;;;;5052445;28;20045;-73
2022/09/21 10:40:48;;;;;;;3.45;1.42;;;16.00;65.40;;;;;;5052626;28;20491;-71
2022/09/21 10:43:25;;;;;;;2.20;1.05;;;17.00;63.40;;;;;;5052786;28;20057;-72
2022/09/21 10:45:53;;;;;;;1.77;1.08;;;16.90;65.90;;;;;;5052888;28;20059;-73
2022/09/21 10:48:21;;;;;;;1.38;0.90;;;17.20;66.30;;;;;;5052382;28;20052;-73
2022/09/21 10:50:48;;;;;;;2.05;1.10;;;17.10;63.30;;;;;;5052149;28;20055;-72
2022/09/21 10:53:21;;;;;;;1.95;1.00;;;17.10;63.30;;;;;;5052905;28;20060;-71
2022/09/21 10:55:52;;;;;;;2.50;0.95;;;17.20;63.20;;;;;;5054367;28;20049;-72
2022/09/21 10:58:19;;;;;;;1.55;0.95;;;17.20;63.20;;;;;;5052713;28;20488;-72
2022/09/21 11:00:50;;;;;;;2.63;1.02;;;17.30;63.20;;;;;;5053513;28;20044;-72
2022/09/21 11:03:42;;;;;;;2.28;1.02;;;17.30;63.20;;;;;;5052338;28;20076;-71
2022/09/21 11:06:11;;;;;;;2.03;1.10;;;17.60;66.20;;;;;;5052294;28;20413;-72
2022/09/21 11:08:40;;;;;;;2.22;1.00;;;17.30;63.10;;;;;;5052676;28;20049;-72
2022/09/21 11:11:28;;;;;;;2.15;1.00;;;17.30;63.10;;;;;;5052082;28;20055;-71
2022/09/21 11:13:59;;;;;;;2.40;1.20;;;17.30;63.00;;;;;;5053362;28;20055;-72
2022/09/21 11:16:31;;;;;;;1.67;0.80;;;17.30;63.00;;;;;;5052201;28;20060;-72
2022/09/21 11:19:01;;;;;;;1.80;0.80;;;17.40;63.00;;;;;;5052074;28;20059;-72
2022/09/21 11:21:33;;;;;;;1.38;0.75;;;17.40;63.00;;;;;;5051897;28;20087;-71
2022/09/21 11:24:04;;;;;;;1.55;0.93;;;17.40;63.00;;;;;;5052158;28;20045;-72
2022/09/21 11:26:35;;;;;;;1.10;1.00;;;17.60;64.30;;;;;;5052198;28;20078;-72
2022/09/21 11:29:04;;;;;;;2.63;0.95;;;17.50;63.00;;;;;;5052029;28;20135;-72
2022/09/21 11:31:41;;;;;;;1.65;1.05;;;17.50;62.90;;;;;;5051513;28;20087;-72
2022/09/21 11:34:24;;;;;;;1.60;1.00;;;17.50;62.80;;;;;;5053014;28;20044;-71
2022/09/21 11:36:56;;;;;;;2.15;1.10;;;17.60;62.80;;;;;;5051973;28;20471;-72
2022/09/21 11:39:26;;;;;;;1.98;1.10;;;17.60;62.80;;;;;;5051994;28;20052;-72
2022/09/21 11:42:09;;;;;;;1.60;0.90;;;17.60;62.70;;;;;;5051843;28;20414;-72
2022/09/21 11:44:51;;;;;;;1.98;1.00;;;17.60;62.70;;;;;;5051898;28;20119;-71
2022/09/21 11:47:29;;;;;;;1.50;0.80;;;17.70;62.70;;;;;;5051638;28;20053;-71
2022/09/21 11:50:09;;;;;;;2.17;0.90;;;17.70;62.70;;;;;;5051417;28;20140;-72
2022/09/21 11:52:42;;;;;;;2.67;0.90;;;17.70;62.70;;;;;;5052415;28;20243;-71
2022/09/21 11:55:29;;;;;;;1.38;0.85;;;17.70;62.60;;;;;;5052646;28;20049;-72
2022/09/21 11:58:00;;;;;;;1.77;1.08;;;17.70;62.60;;;;;;5051528;28;20053;-72
2022/09/21 12:00:27;;;;;;;1.73;1.08;;;17.70;62.60;;;;;;5051292;28;20409;-72
2022/09/21 12:03:24;;;;;;;2.22;1.00;;;18.00;65.40;;;;;;5052524;28;20494;-72
2022/09/21 12:06:01;;;;;;;1.45;0.80;;;17.80;62.50;;;;;;5050843;28;20056;-71
2022/09/21 12:08:48;;;;;;;1.73;0.90;;;17.80;62.50;;;;;;5051313;28;20045;-71
2022/09/21 12:11:20;;;;;;;1.50;0.90;;;18.00;65.80;;;;;;5050806;28;20052;-71
2022/09/21 12:13:51;;;;;;;1.50;0.90;;;17.80;62.50;;;;;;5051398;28;20132;-72
2022/09/21 12:16:20;;;;;;;2.22;0.90;;;17.80;62.50;;;;;;5051246;28;20067;-71
2022/09/21 12:18:50;;;;;;;0.60;0.60;;;17.80;62.40;;;;;;5050957;28;20136;-72
2022/09/21 12:21:20;;;;;;;1.50;0.88;;;17.80;62.50;;;;;;5050612;28;20053;-71
2022/09/21 12:23:48;;;;;;;1.50;0.75;;;17.70;65.40;;;;;;5051231;28;20067;-71
2022/09/21 12:26:18;;;;;;;1.38;0.90;;;16.90;64.70;;;;;;5051171;28;20413;-71
2022/09/21 12:28:46;;;;;;;1.63;0.90;;;17.80;62.50;;;;;;5050740;28;20083;-72
2022/09/21 12:31:18;;;;;;;2.08;1.20;;;17.80;62.50;;;;;;5050752;28;20059;-72
2022/09/21 12:33:47;;;;;;;1.73;0.88;;;17.80;62.50;;;;;;5050602;28;20064;-72
2022/09/21 12:36:16;;;;;;;1.65;1.10;;;17.70;62.40;;;;;;5051864;28;20067;-72
2022/09/21 12:38:45;;;;;;;1.45;0.85;;;17.70;62.40;;;;;;5050337;28;20057;-72
2022/09/21 12:41:15;;;;;;;1.45;0.93;;;17.70;62.40;;;;;;5051631;28;20055;-72
2022/09/21 12:43:44;;;;;;;0.80;0.80;;;17.70;62.50;;;;;;5052279;28;20057;-72
2022/09/21 12:46:12;;;;;;;2.47;1.00;;;17.70;62.50;;;;;;5051512;28;20059;-72
2022/09/21 12:48:41;;;;;;;1.25;0.98;;;18.30;65.40;;;;;;5050381;28;20044;-73
2022/09/21 12:51:12;;;;;;;1.20;1.00;;;17.70;62.50;;;;;;5050854;28;20064;-72
2022/09/21 12:53:40;;;;;;;1.65;1.00;;;17.60;65.30;;;;;;5051998;28;20417;-72
2022/09/21 12:56:10;;;;;;;0.77;0.68;;;17.60;62.50;;;;;;5051961;28;20512;-71
2022/09/21 12:58:49;;;;;;;1.25;0.90;;;17.60;62.50;;;;;;5051512;28;20402;-71
2022/09/21 13:01:25;;;;;;;1.63;0.93;;;17.60;62.50;;;;;;5051683;28;20107;-72
2022/09/21 13:04:00;;;;;;;1.13;0.93;;;17.60;62.60;;;;;;5053315;28;20049;-72
2022/09/21 13:06:53;;;;;;;0.85;0.68;;;17.60;62.60;;;;;;5055804;28;20055;-72